Aeroporto :
LOGIN :

Iscrizione | Disclaimer

   EN    FR    IT 

 










Sommario :    VFR   VFR Marginale   IFR   IFR Intensivo   IFR Molto Intensivo
Visibilità : 
Base nubi : 
>= 8 km
>= 3000ft
5 / 8 km
1000 / 3000 ft
1500m / 5 km
500 / 1000 ft
800 / 1500m
200 / 500 ft
< 800m
< 200 ft
Simboli :   Temporali  Nebbia  Neve Forte  Precipitazioni Forti  Vento > 20 kt
SIGMETs :   Varie  Temporali  Ghiacco  Turbolenza  Onda orograficha  Ceneri Vulcaniche






- Altitudine del aeroporto : 2096 ft
- Codice IATA : AUR


LFLW - Aurillac

ULTIMO METAR :
  • 220300Z AUTO 12002KT 9999 FEW019 BKN210 BKN230 07/07 Q1021

METARs OBSOLETI :
  • 220230Z AUTO VRB02KT 9000 BKN021 BKN043 BKN240 07/07 Q1020
  • 220200Z AUTO 12001KT 9999 BKN020 BKN027 07/07 Q1021
  • 220130Z AUTO 00000KT 9999 FEW019 SCT024 BKN034 07/07 Q1020
  • 220100Z AUTO 00000KT 9999 SCT017 BKN038 BKN230 07/07 Q1021
  • 220030Z AUTO 09003KT 9999 FEW049 BKN230 BKN240 07/07 Q1021

Previsioni scadute.



MetMap, La meteo Aeronautica in un colpo d'occhio ! - Copyright ORBIFLY Dicembre 2007 - Disclaimer

ORBIFLY MET'MAP TEAM :

Programmazione e sviluppo : Alexandra Zaïnal
Concezione e sviluppo : Baudouin d'Aumeries
Co-Programmazione e sviluppo : Marc-Olivier Méhu
Supporto tecnico e logistico : Manuel Goepfert
Aiuto per la traduzione : Arnaldo La Scala

Contatto : metmap@orbifly.com




FONTI E CREDITI :

   NOAA